Observation data for Ralls on 10/13/2019      Previous  Date       Current Mesonet Observations  Soil Data  Daily Summary Page  Observations in Plain Language
KRLS 130500Z 19007KT 09/M01 A30 RMK A01 T00881009  RH  051%=      5-min Rain = 0
KRLS 130505Z 19008KT 09/M01 A2999 RMK A01 T00861008  RH  052%=      5-min Rain = 0
KRLS 130510Z 18008KT 09/M01 A2999 RMK A01 T00881007  RH  052%=      5-min Rain = 0
KRLS 130515Z 19007KT 09/M01 A2999 RMK A01 T00901007  RH  051%=      5-min Rain = 0
KRLS 130520Z 19008KT 09/M01 A2999 RMK A01 T00921007  RH  051%=      5-min Rain = 0
KRLS 130525Z 19007KT 09/M01 A2999 RMK A01 T00921007  RH  050%=      5-min Rain = 0
KRLS 130530Z 20006KT 09/M01 A2999 RMK A01 T00911007  RH  051%=      5-min Rain = 0
KRLS 130535Z 21005KT 09/M01 A2999 RMK A01 T00931007  RH  050%=      5-min Rain = 0
KRLS 130540Z 20005KT 10/M01 A2999 RMK A01 T00951009  RH  049%=      5-min Rain = 0
KRLS 130545Z 19006KT 09/M01 A2999 RMK A01 T00911010  RH  050%=      5-min Rain = 0
KRLS 130550Z 19008KT 08/M01 A2999 RMK A01 T00831009  RH  053%=      5-min Rain = 0
KRLS 130555Z 19008KT 08/M01 A2999 RMK A01 T00821007  RH  054%=      5-min Rain = 0
KRLS 130600Z 19007KT 08/M01 A2998 RMK A01 T00811007  RH  055%=      5-min Rain = 0
KRLS 130605Z 19006KT 08/M01 A2998 RMK A01 T00791006  RH  056%=      5-min Rain = 0
KRLS 130610Z 20004KT 08/M01 A2999 RMK A01 T00791006  RH  055%=      5-min Rain = 0
KRLS 130615Z 21003KT 08/M01 A2999 RMK A01 T00791007  RH  055%=      5-min Rain = 0
KRLS 130620Z 21004KT 09/M01 A2999 RMK A01 T00881006  RH  052%=      5-min Rain = 0
KRLS 130625Z 20005KT 09/M01 A2998 RMK A01 T00921006  RH  051%=      5-min Rain = 0
KRLS 130630Z 20006KT 08/M01 A2998 RMK A01 T00831006  RH  054%=      5-min Rain = 0
KRLS 130635Z 22003KT 08/M00 A2998 RMK A01 T00771002  RH  058%=      5-min Rain = 0
KRLS 130640Z 32004KT 08/00 A2999 RMK A01 T00810003  RH  059%=      5-min Rain = 0
KRLS 130645Z 27003KT 09/M00 A2999 RMK A01 T00881001  RH  054%=      5-min Rain = 0
KRLS 130650Z 26003KT 09/M00 A2999 RMK A01 T00921002  RH  053%=      5-min Rain = 0
KRLS 130655Z 30003KT 09/00 A2999 RMK A01 T008600-0  RH  055%=      5-min Rain = 0
KRLS 130700Z 30004KT 09/M00 A2999 RMK A01 T00851002  RH  055%=      5-min Rain = 0
KRLS 130705Z 28004KT 08/M00 A2999 RMK A01 T00821001  RH  057%=      5-min Rain = 0
KRLS 130710Z 23004KT 08/00 A2999 RMK A01 T00790001  RH  058%=      5-min Rain = 0
KRLS 130715Z 24003KT 07/00 A2999 RMK A01 T006700-0  RH  063%=      5-min Rain = 0
KRLS 130720Z 27002KT 07/00 A2999 RMK A01 T00670001  RH  063%=      5-min Rain = 0
KRLS 130725Z 33002KT 08/00 A2999 RMK A01 T00780004  RH  060%=      5-min Rain = 0
KRLS 130730Z 30002KT 09/00 A2999 RMK A01 T009000-0  RH  054%=      5-min Rain = 0
KRLS 130735Z 23004KT 09/M00 A2999 RMK A01 T00941003  RH  051%=      5-min Rain = 0
KRLS 130740Z 22006KT 09/M00 A2999 RMK A01 T00851001  RH  055%=      5-min Rain = 0
KRLS 130745Z 24006KT 08/01 A2999 RMK A01 T00800005  RH  060%=      5-min Rain = 0
KRLS 130750Z 23007KT 09/01 A2999 RMK A01 T00880008  RH  058%=      5-min Rain = 0
KRLS 130755Z 23009KT 08/00 A2999 RMK A01 T00820003  RH  058%=      5-min Rain = 0
KRLS 130800Z 22010KT 08/00 A2998 RMK A01 T00800002  RH  058%=      5-min Rain = 0
KRLS 130805Z 22010KT 09/00 A2998 RMK A01 T00910000  RH  054%=      5-min Rain = 0
KRLS 130810Z 22010KT 09/M00 A2998 RMK A01 T00931001  RH  052%=      5-min Rain = 0
KRLS 130815Z 22010KT 09/M00 A2998 RMK A01 T00941003  RH  051%=      5-min Rain = 0
KRLS 130820Z 23008KT 09/M00 A2998 RMK A01 T00941002  RH  052%=      5-min Rain = 0
KRLS 130825Z 23008KT 09/00 A2998 RMK A01 T00930001  RH  053%=      5-min Rain = 0
KRLS 130830Z 23007KT 09/00 A2998 RMK A01 T00920003  RH  054%=      5-min Rain = 0
KRLS 130835Z 24007KT 09/00 A2998 RMK A01 T00910003  RH  055%=      5-min Rain = 0
KRLS 130840Z 24007KT 09/00 A2998 RMK A01 T00910002  RH  054%=      5-min Rain = 0
KRLS 130845Z 24006KT 09/00 A2998 RMK A01 T00910003  RH  055%=      5-min Rain = 0
KRLS 130850Z 24005KT 09/00 A2998 RMK A01 T00900002  RH  055%=      5-min Rain = 0
KRLS 130855Z 23006KT 09/00 A2998 RMK A01 T00860002  RH  056%=      5-min Rain = 0
KRLS 130900Z 23007KT 08/00 A2997 RMK A01 T00790000  RH  058%=      5-min Rain = 0
KRLS 130905Z 24006KT 08/00 A2997 RMK A01 T00810004  RH  059%=      5-min Rain = 0
KRLS 130910Z 26005KT 09/01 A2998 RMK A01 T00850005  RH  058%=      5-min Rain = 0
KRLS 130915Z 26006KT 09/00 A2998 RMK A01 T00880003  RH  056%=      5-min Rain = 0
KRLS 130920Z 25006KT 09/00 A2997 RMK A01 T00890004  RH  056%=      5-min Rain = 0
KRLS 130925Z 27005KT 09/01 A2997 RMK A01 T00870005  RH  057%=      5-min Rain = 0
KRLS 130930Z 26005KT 08/00 A2997 RMK A01 T00820003  RH  058%=      5-min Rain = 0
KRLS 130935Z 25007KT 08/01 A2997 RMK A01 T00810006  RH  060%=      5-min Rain = 0
KRLS 130940Z 26008KT 08/01 A2997 RMK A01 T00830007  RH  060%=      5-min Rain = 0
KRLS 130945Z 26007KT 09/01 A2997 RMK A01 T00850006  RH  058%=      5-min Rain = 0
KRLS 130950Z 26008KT 09/01 A2997 RMK A01 T00890005  RH  056%=      5-min Rain = 0
KRLS 130955Z 25008KT 09/00 A2997 RMK A01 T00900003  RH  055%=      5-min Rain = 0
KRLS 131000Z 25008KT 09/00 A2996 RMK A01 T00900003  RH  055%=      5-min Rain = 0
KRLS 131005Z 26007KT 09/00 A2997 RMK A01 T00900002  RH  055%=      5-min Rain = 0
KRLS 131010Z 26007KT 09/00 A2997 RMK A01 T00880002  RH  056%=      5-min Rain = 0
KRLS 131015Z 25008KT 09/00 A2996 RMK A01 T00900002  RH  055%=      5-min Rain = 0
KRLS 131020Z 26008KT 09/00 A2996 RMK A01 T00910001  RH  054%=      5-min Rain = 0
KRLS 131025Z 27006KT 09/00 A2996 RMK A01 T00870002  RH  056%=      5-min Rain = 0
KRLS 131030Z 26006KT 08/00 A2996 RMK A01 T00830004  RH  058%=      5-min Rain = 0
KRLS 131035Z 27005KT 08/01 A2996 RMK A01 T00820005  RH  059%=      5-min Rain = 0
KRLS 131040Z 28005KT 08/00 A2996 RMK A01 T00770003  RH  060%=      5-min Rain = 0
KRLS 131045Z 26005KT 08/01 A2996 RMK A01 T00780005  RH  061%=      5-min Rain = 0
KRLS 131050Z 26006KT 08/01 A2996 RMK A01 T00780007  RH  061%=      5-min Rain = 0
KRLS 131055Z 25006KT 08/01 A2996 RMK A01 T00790007  RH  061%=      5-min Rain = 0
KRLS 131100Z 26006KT 08/01 A2996 RMK A01 T00780008  RH  062%=      5-min Rain = 0
KRLS 131105Z 26006KT 08/01 A2996 RMK A01 T00780009  RH  063%=      5-min Rain = 0
KRLS 131110Z 26006KT 08/01 A2996 RMK A01 T00790008  RH  062%=      5-min Rain = 0
KRLS 131115Z 26005KT 08/01 A2996 RMK A01 T00790008  RH  062%=      5-min Rain = 0
KRLS 131120Z 24005KT 08/01 A2996 RMK A01 T00770009  RH  063%=      5-min Rain = 0
KRLS 131125Z 26005KT 07/01 A2996 RMK A01 T00730010  RH  065%=      5-min Rain = 0
KRLS 131130Z 26005KT 07/01 A2996 RMK A01 T00730011  RH  066%=      5-min Rain = 0
KRLS 131135Z 25007KT 08/01 A2996 RMK A01 T00760010  RH  064%=      5-min Rain = 0
KRLS 131140Z 25007KT 08/01 A2996 RMK A01 T00780010  RH  063%=      5-min Rain = 0
KRLS 131145Z 25007KT 08/01 A2996 RMK A01 T00790009  RH  062%=      5-min Rain = 0
KRLS 131150Z 26007KT 08/01 A2996 RMK A01 T00810008  RH  061%=      5-min Rain = 0
KRLS 131155Z 26008KT 08/01 A2996 RMK A01 T00820008  RH  060%=      5-min Rain = 0
KRLS 131200Z 26007KT 08/01 A2997 RMK A01 T00820009  RH  061%=      5-min Rain = 0
KRLS 131205Z 26006KT 08/01 A2997 RMK A01 T00810010  RH  061%=      5-min Rain = 0
KRLS 131210Z 26006KT 08/01 A2997 RMK A01 T00810010  RH  062%=      5-min Rain = 0
KRLS 131215Z 25006KT 08/01 A2997 RMK A01 T00800011  RH  062%=      5-min Rain = 0
KRLS 131220Z 25007KT 08/01 A2997 RMK A01 T00790011  RH  063%=      5-min Rain = 0
KRLS 131225Z 26005KT 08/01 A2997 RMK A01 T00790011  RH  063%=      5-min Rain = 0
KRLS 131230Z 26005KT 08/01 A2997 RMK A01 T00750011  RH  065%=      5-min Rain = 0
KRLS 131235Z 27005KT 08/01 A2998 RMK A01 T00750011  RH  065%=      5-min Rain = 0
KRLS 131240Z 28007KT 08/01 A2998 RMK A01 T00770010  RH  063%=      5-min Rain = 0
KRLS 131245Z 27008KT 08/01 A2998 RMK A01 T00840010  RH  060%=      5-min Rain = 0
KRLS 131250Z 26009KT 10/01 A2997 RMK A01 T00950007  RH  055%=      5-min Rain = 0
KRLS 131255Z 25009KT 10/01 A2998 RMK A01 T00980005  RH  053%=      5-min Rain = 0
KRLS 131300Z 25009KT 10/01 A2998 RMK A01 T00960005  RH  054%=      5-min Rain = 0
KRLS 131305Z 25008KT 09/01 A2998 RMK A01 T00940005  RH  054%=      5-min Rain = 0
KRLS 131310Z 25007KT 09/01 A2998 RMK A01 T00930006  RH  055%=      5-min Rain = 0
KRLS 131315Z 24007KT 09/01 A2998 RMK A01 T00930007  RH  055%=      5-min Rain = 0
KRLS 131320Z 25007KT 09/01 A2998 RMK A01 T00940007  RH  055%=      5-min Rain = 0
KRLS 131325Z 25007KT 10/01 A2998 RMK A01 T00950007  RH  055%=      5-min Rain = 0
KRLS 131330Z 25006KT 10/01 A2998 RMK A01 T00960008  RH  055%=      5-min Rain = 0
KRLS 131335Z 25006KT 10/01 A2998 RMK A01 T00990009  RH  054%=      5-min Rain = 0
KRLS 131340Z 25007KT 10/01 A2998 RMK A01 T01010009  RH  053%=      5-min Rain = 0
KRLS 131345Z 25007KT 11/01 A2998 RMK A01 T01050010  RH  052%=      5-min Rain = 0
KRLS 131350Z 25007KT 11/01 A2999 RMK A01 T01080011  RH  052%=      5-min Rain = 0
KRLS 131355Z 25008KT 11/01 A2999 RMK A01 T01120009  RH  050%=      5-min Rain = 0
KRLS 131400Z 25008KT 12/01 A2999 RMK A01 T01150010  RH  049%=      5-min Rain = 0
KRLS 131405Z 25007KT 12/01 A2999 RMK A01 T01190013  RH  049%=      5-min Rain = 0
KRLS 131410Z 25008KT 12/02 A2999 RMK A01 T01220015  RH  049%=      5-min Rain = 0
KRLS 131415Z 26008KT 12/01 A2999 RMK A01 T01230014  RH  048%=      5-min Rain = 0
KRLS 131420Z 25008KT 13/02 A2999 RMK A01 T01280017  RH  048%=      5-min Rain = 0
KRLS 131425Z 25008KT 13/02 A30 RMK A01 T01320019  RH  047%=      5-min Rain = 0
KRLS 131430Z 25009KT 14/02 A30 RMK A01 T01350018  RH  046%=      5-min Rain = 0
KRLS 131435Z 25008KT 14/02 A30 RMK A01 T01380019  RH  045%=      5-min Rain = 0
KRLS 131440Z 25008KT 14/02 A30 RMK A01 T01420023  RH  045%=      5-min Rain = 0
KRLS 131445Z 25008KT 15/02 A30 RMK A01 T01450023  RH  045%=      5-min Rain = 0
KRLS 131450Z 25007KT 15/03 A30 RMK A01 T01480025  RH  044%=      5-min Rain = 0
KRLS 131455Z 25007KT 15/03 A30 RMK A01 T01520026  RH  044%=      5-min Rain = 0
KRLS 131500Z 25006KT 16/03 A30 RMK A01 T01580030  RH  043%=      5-min Rain = 0
KRLS 131505Z 26007KT 16/03 A30 RMK A01 T01600030  RH  042%=      5-min Rain = 0
KRLS 131510Z 26006KT 16/03 A30 RMK A01 T01610028  RH  042%=      5-min Rain = 0
KRLS 131515Z 26006KT 17/03 A30 RMK A01 T01650032  RH  042%=      5-min Rain = 0
KRLS 131520Z 26008KT 17/03 A30 RMK A01 T01670030  RH  040%=      5-min Rain = 0
KRLS 131525Z 27007KT 17/03 A30 RMK A01 T01710032  RH  040%=      5-min Rain = 0
KRLS 131530Z 26008KT 18/03 A30 RMK A01 T01760033  RH  039%=      5-min Rain = 0
KRLS 131535Z 27007KT 18/04 A30 RMK A01 T01810036  RH  039%=      5-min Rain = 0
KRLS 131540Z 28007KT 19/04 A30 RMK A01 T01860038  RH  038%=      5-min Rain = 0
KRLS 131545Z 27009KT 19/03 A30 RMK A01 T01870034  RH  037%=      5-min Rain = 0
KRLS 131550Z 27009KT 19/04 A30 RMK A01 T01880036  RH  037%=      5-min Rain = 0
KRLS 131555Z 27009KT 19/04 A30 RMK A01 T01900035  RH  037%=      5-min Rain = 0
KRLS 131600Z 27009KT 19/04 A30 RMK A01 T01910035  RH  036%=      5-min Rain = 0
KRLS 131605Z 28009KT 20/04 A30 RMK A01 T01960038  RH  036%=      5-min Rain = 0
KRLS 131610Z 27009KT 20/04 A3001 RMK A01 T01980038  RH  035%=      5-min Rain = 0
KRLS 131615Z 27007KT 20/04 A3001 RMK A01 T02020043  RH  036%=      5-min Rain = 0
KRLS 131620Z 27007KT 21/05 A3001 RMK A01 T02090046  RH  035%=      5-min Rain = 0
KRLS 131625Z 26007KT 21/04 A3001 RMK A01 T02080042  RH  034%=      5-min Rain = 0
KRLS 131630Z 28007G12KT 21/04 A3001 RMK A01 T02100042  RH  034%=      5-min Rain = 0
KRLS 131635Z 29009KT 21/04 A30 RMK A01 T02140043  RH  033%=      5-min Rain = 0
KRLS 131640Z 28007KT 22/04 A3001 RMK A01 T02150043  RH  033%=      5-min Rain = 0
KRLS 131645Z 29007KT 22/05 A30 RMK A01 T02180048  RH  034%=      5-min Rain = 0
KRLS 131650Z 29008KT 22/04 A30 RMK A01 T02190044  RH  033%=      5-min Rain = 0
KRLS 131655Z 30007KT 22/05 A30 RMK A01 T02210046  RH  033%=      5-min Rain = 0
KRLS 131700Z 28006KT 22/05 A30 RMK A01 T02240048  RH  032%=      5-min Rain = 0
KRLS 131705Z 28007KT 23/05 A30 RMK A01 T02270048  RH  032%=      5-min Rain = 0
KRLS 131710Z 28008KT 23/05 A30 RMK A01 T02310049  RH  031%=      5-min Rain = 0
KRLS 131715Z 28008KT 23/05 A30 RMK A01 T02340048  RH  031%=      5-min Rain = 0
KRLS 131720Z 28007KT 24/05 A30 RMK A01 T02350049  RH  031%=      5-min Rain = 0
KRLS 131725Z 30007KT 24/05 A30 RMK A01 T02390052  RH  030%=      5-min Rain = 0
KRLS 131730Z 27006KT 24/05 A30 RMK A01 T02400051  RH  030%=      5-min Rain = 0
KRLS 131735Z 28007KT 24/05 A30 RMK A01 T02440054  RH  030%=      5-min Rain = 0
KRLS 131740Z 28007KT 25/05 A30 RMK A01 T02450051  RH  029%=      5-min Rain = 0
KRLS 131745Z 26005KT 24/05 A30 RMK A01 T02440046  RH  028%=      5-min Rain = 0
KRLS 131750Z 25006KT 25/05 A2999 RMK A01 T02490048  RH  028%=      5-min Rain = 0
KRLS 131755Z 27007KT 25/05 A2999 RMK A01 T02510047  RH  028%=      5-min Rain = 0
KRLS 131800Z 25005KT 25/05 A2999 RMK A01 T02530047  RH  027%=      5-min Rain = 0
KRLS 131805Z 26004KT 26/05 A2999 RMK A01 T02560048  RH  027%=      5-min Rain = 0
KRLS 131810Z 25006KT 26/05 A2999 RMK A01 T02580046  RH  026%=      5-min Rain = 0
KRLS 131815Z 27007KT 26/04 A2999 RMK A01 T02570044  RH  026%=      5-min Rain = 0
KRLS 131820Z 26004KT 26/04 A2999 RMK A01 T02570041  RH  025%=      5-min Rain = 0
KRLS 131825Z 24005KT 26/04 A2999 RMK A01 T02580043  RH  025%=      5-min Rain = 0
KRLS 131830Z 27003KT 26/04 A2999 RMK A01 T02590041  RH  025%=      5-min Rain = 0
KRLS 131835Z 27004KT 26/04 A2998 RMK A01 T02610043  RH  025%=      5-min Rain = 0
KRLS 131840Z 29005KT 26/05 A2998 RMK A01 T02580045  RH  026%=      5-min Rain = 0
KRLS 131845Z 26006KT 26/05 A2998 RMK A01 T02610046  RH  026%=      5-min Rain = 0
KRLS 131850Z 28005KT 26/04 A2998 RMK A01 T02610038  RH  024%=      5-min Rain = 0
KRLS 131855Z 24006KT 26/04 A2998 RMK A01 T02640039  RH  024%=      5-min Rain = 0
KRLS 131900Z 25006KT 26/04 A2997 RMK A01 T02620039  RH  024%=      5-min Rain = 0
KRLS 131905Z 27008KT 27/05 A2997 RMK A01 T02650047  RH  025%=      5-min Rain = 0
KRLS 131910Z 30004KT 26/04 A2997 RMK A01 T02630042  RH  025%=      5-min Rain = 0
KRLS 131915Z 26006KT 27/04 A2997 RMK A01 T02660042  RH  024%=      5-min Rain = 0
KRLS 131920Z 26005KT 27/04 A2996 RMK A01 T02650038  RH  024%=      5-min Rain = 0
KRLS 131925Z 24007KT 27/04 A2996 RMK A01 T02700042  RH  024%=      5-min Rain = 0
KRLS 131930Z 26008KT 27/04 A2996 RMK A01 T02670037  RH  023%=      5-min Rain = 0
KRLS 131935Z 26006G11KT 27/03 A2996 RMK A01 T02650031  RH  022%=      5-min Rain = 0
KRLS 131940Z 26006KT 27/04 A2996 RMK A01 T02680037  RH  023%=      5-min Rain = 0
KRLS 131945Z 28006KT 27/04 A2996 RMK A01 T02680039  RH  023%=      5-min Rain = 0
KRLS 131950Z 25006KT 27/04 A2995 RMK A01 T02700037  RH  023%=      5-min Rain = 0
KRLS 131955Z 25006KT 27/03 A2995 RMK A01 T02700034  RH  022%=      5-min Rain = 0
KRLS 132000Z 23008KT 27/03 A2995 RMK A01 T02740033  RH  022%=      5-min Rain = 0
KRLS 132005Z 23006KT 28/03 A2995 RMK A01 T02750033  RH  021%=      5-min Rain = 0
KRLS 132010Z 24008G13KT 27/03 A2995 RMK A01 T02730030  RH  021%=      5-min Rain = 0
KRLS 132015Z 24006KT 27/03 A2994 RMK A01 T02730029  RH  021%=      5-min Rain = 0
KRLS 132020Z 24008KT 28/03 A2994 RMK A01 T02750028  RH  021%=      5-min Rain = 0
KRLS 132025Z 26006KT 27/03 A2994 RMK A01 T02740033  RH  022%=      5-min Rain = 0
KRLS 132030Z 25004KT 28/04 A2994 RMK A01 T02770037  RH  022%=      5-min Rain = 0
KRLS 132035Z 20006KT 28/03 A2994 RMK A01 T02840030  RH  020%=      5-min Rain = 0
KRLS 132040Z 19007KT 28/02 A2993 RMK A01 T02840024  RH  019%=      5-min Rain = 0
KRLS 132045Z 21005G10KT 28/03 A2993 RMK A01 T02840031  RH  020%=      5-min Rain = 0
KRLS 132050Z 24006G14KT 29/03 A2993 RMK A01 T02850030  RH  020%=      5-min Rain = 0
KRLS 132055Z 22005KT 28/03 A2993 RMK A01 T02840026  RH  019%=      5-min Rain = 0
KRLS 132100Z 22007KT 29/02 A2993 RMK A01 T02870024  RH  019%=      5-min Rain = 0
KRLS 132105Z 20005KT 29/02 A2993 RMK A01 T02860017  RH  018%=      5-min Rain = 0
KRLS 132110Z 22007KT 29/02 A2993 RMK A01 T02880023  RH  018%=      5-min Rain = 0
KRLS 132115Z 23006KT 29/02 A2993 RMK A01 T02850023  RH  019%=      5-min Rain = 0
KRLS 132120Z 23007G12KT 29/02 A2993 RMK A01 T02850015  RH  018%=      5-min Rain = 0
KRLS 132125Z 24005KT 29/02 A2993 RMK A01 T02870022  RH  019%=      5-min Rain = 0
KRLS 132130Z 25006G11KT 29/03 A2993 RMK A01 T02850027  RH  019%=      5-min Rain = 0
KRLS 132135Z 20007G13KT 29/02 A2993 RMK A01 T02890015  RH  017%=      5-min Rain = 0
KRLS 132140Z 23006KT 29/02 A2993 RMK A01 T02890019  RH  018%=      5-min Rain = 0
KRLS 132145Z 25006G11KT 29/03 A2993 RMK A01 T02860026  RH  019%=      5-min Rain = 0
KRLS 132150Z 25010G15KT 28/02 A2993 RMK A01 T02830017  RH  018%=      5-min Rain = 0
KRLS 132155Z 26006G11KT 28/03 A2993 RMK A01 T02830026  RH  020%=      5-min Rain = 0
KRLS 132200Z 24005G11KT 29/02 A2992 RMK A01 T02870021  RH  018%=      5-min Rain = 0
KRLS 132205Z 24006G11KT 29/02 A2992 RMK A01 T02890018  RH  018%=      5-min Rain = 0
KRLS 132210Z 25007G13KT 29/02 A2992 RMK A01 T02870016  RH  018%=      5-min Rain = 0
KRLS 132215Z 24009KT 29/02 A2992 RMK A01 T02850016  RH  018%=      5-min Rain = 0
KRLS 132220Z 25007KT 29/02 A2992 RMK A01 T02850019  RH  018%=      5-min Rain = 0
KRLS 132225Z 25005KT 29/02 A2992 RMK A01 T02850017  RH  018%=      5-min Rain = 0
KRLS 132230Z 26005KT 29/02 A2992 RMK A01 T02850021  RH  019%=      5-min Rain = 0
KRLS 132235Z 26005KT 28/02 A2992 RMK A01 T02840018  RH  018%=      5-min Rain = 0
KRLS 132240Z 25004KT 29/01 A2992 RMK A01 T02870014  RH  017%=      5-min Rain = 0
KRLS 132245Z 24004KT 29/02 A2992 RMK A01 T02860024  RH  019%=      5-min Rain = 0
KRLS 132250Z 22008KT 29/01 A2992 RMK A01 T02860013  RH  017%=      5-min Rain = 0
KRLS 132255Z 23007KT 28/01 A2992 RMK A01 T02830011  RH  017%=      5-min Rain = 0
KRLS 132300Z 24009KT 28/01 A2992 RMK A01 T02820007  RH  017%=      5-min Rain = 0
KRLS 132305Z 24007KT 28/01 A2992 RMK A01 T02760008  RH  018%=      5-min Rain = 0
KRLS 132310Z 23007KT 28/01 A2993 RMK A01 T02750014  RH  019%=      5-min Rain = 0
KRLS 132315Z 23010KT 27/M00 A2993 RMK A01 T02741001  RH  017%=      5-min Rain = 0
KRLS 132320Z 24009KT 28/M01 A2993 RMK A01 T02781005  RH  016%=      5-min Rain = 0
KRLS 132325Z 23008KT 28/00 A2993 RMK A01 T02760000  RH  017%=      5-min Rain = 0
KRLS 132330Z 21008KT 27/01 A2993 RMK A01 T02710007  RH  018%=      5-min Rain = 0
KRLS 132335Z 22007KT 26/01 A2993 RMK A01 T02640014  RH  020%=      5-min Rain = 0
KRLS 132340Z 22006KT 26/02 A2993 RMK A01 T02590015  RH  021%=      5-min Rain = 0
KRLS 132345Z 22005KT 25/02 A2993 RMK A01 T02480023  RH  023%=      5-min Rain = 0
KRLS 132350Z 23005KT 24/03 A2994 RMK A01 T02410028  RH  025%=      5-min Rain = 0
KRLS 132355Z 23005KT 24/03 A2994 RMK A01 T02370031  RH  026%=      5-min Rain = 0
KRLS 140000Z 22005KT 23/03 A2994 RMK A01 T02340025  RH  026%=      5-min Rain = 0
KRLS 140005Z 22005KT 23/02 A2994 RMK A01 T02260020  RH  026%=      5-min Rain = 0
KRLS 140010Z 22005KT 22/02 A2994 RMK A01 T02220024  RH  028%=      5-min Rain = 0
KRLS 140015Z 22005KT 21/02 A2994 RMK A01 T02130024  RH  029%=      5-min Rain = 0
KRLS 140020Z 21004KT 21/02 A2994 RMK A01 T02080021  RH  029%=      5-min Rain = 0
KRLS 140025Z 19006KT 20/02 A2994 RMK A01 T02010024  RH  031%=      5-min Rain = 0
KRLS 140030Z 18008KT 20/02 A2994 RMK A01 T01970020  RH  031%=      5-min Rain = 0
KRLS 140035Z 19008KT 20/02 A2994 RMK A01 T01950021  RH  032%=      5-min Rain = 0
KRLS 140040Z 18007KT 19/02 A2995 RMK A01 T01930023  RH  033%=      5-min Rain = 0
KRLS 140045Z 18006KT 18/03 A2995 RMK A01 T01830029  RH  036%=      5-min Rain = 0
KRLS 140050Z 19006KT 18/03 A2995 RMK A01 T01770031  RH  038%=      5-min Rain = 0
KRLS 140055Z 19006KT 18/04 A2995 RMK A01 T01780040  RH  041%=      5-min Rain = 0
KRLS 140100Z 20006KT 18/04 A2996 RMK A01 T01790037  RH  040%=      5-min Rain = 0
KRLS 140105Z 21004KT 19/03 A2996 RMK A01 T01900033  RH  036%=      5-min Rain = 0
KRLS 140110Z 21004KT 19/03 A2996 RMK A01 T01910033  RH  036%=      5-min Rain = 0
KRLS 140115Z 21004KT 19/04 A2996 RMK A01 T01880035  RH  037%=      5-min Rain = 0
KRLS 140120Z 20005KT 19/03 A2996 RMK A01 T01850032  RH  037%=      5-min Rain = 0
KRLS 140125Z 20003KT 18/04 A2996 RMK A01 T01770036  RH  040%=      5-min Rain = 0
KRLS 140130Z 20004KT 18/04 A2996 RMK A01 T01820041  RH  040%=      5-min Rain = 0
KRLS 140135Z 19005KT 18/04 A2997 RMK A01 T01830036  RH  038%=      5-min Rain = 0
KRLS 140140Z 20005KT 18/04 A2997 RMK A01 T01800035  RH  039%=      5-min Rain = 0
KRLS 140145Z 20004KT 18/04 A2997 RMK A01 T01800037  RH  040%=      5-min Rain = 0
KRLS 140150Z 21003KT 18/04 A2997 RMK A01 T01810036  RH  039%=      5-min Rain = 0
KRLS 140155Z 21004KT 18/03 A2997 RMK A01 T01820033  RH  038%=      5-min Rain = 0
KRLS 140200Z 20005KT 18/03 A2997 RMK A01 T01800031  RH  038%=      5-min Rain = 0
KRLS 140205Z 21003KT 17/03 A2997 RMK A01 T01730031  RH  039%=      5-min Rain = 0
KRLS 140210Z 22002KT 17/03 A2997 RMK A01 T01730032  RH  039%=      5-min Rain = 0
KRLS 140215Z 25002KT 18/04 A2997 RMK A01 T01780035  RH  039%=      5-min Rain = 0
KRLS 140220Z 24002KT 18/04 A2997 RMK A01 T01770037  RH  040%=      5-min Rain = 0
KRLS 140225Z 26001KT 18/04 A2997 RMK A01 T01760036  RH  040%=      5-min Rain = 0
KRLS 140230Z 27001KT 17/04 A2997 RMK A01 T01730041  RH  042%=      5-min Rain = 0
KRLS 140235Z 21001KT 17/04 A2997 RMK A01 T01720041  RH  042%=      5-min Rain = 0
KRLS 140240Z 15001KT 17/04 A2997 RMK A01 T01700035  RH  041%=      5-min Rain = 0
KRLS 140245Z 16003KT 18/04 A2997 RMK A01 T01800035  RH  039%=      5-min Rain = 0
KRLS 140250Z 18004KT 17/03 A2997 RMK A01 T01740033  RH  040%=      5-min Rain = 0
KRLS 140255Z 18004KT 17/04 A2997 RMK A01 T01710037  RH  041%=      5-min Rain = 0
KRLS 140300Z 18004KT 16/05 A2997 RMK A01 T01640050  RH  048%=      5-min Rain = 0
KRLS 140305Z 17004KT 16/05 A2997 RMK A01 T01630046  RH  047%=      5-min Rain = 0
KRLS 140310Z 19003KT 16/05 A2997 RMK A01 T01600048  RH  048%=      5-min Rain = 0
KRLS 140315Z 18005KT 16/04 A2998 RMK A01 T01550044  RH  049%=      5-min Rain = 0
KRLS 140320Z 21003KT 15/04 A2997 RMK A01 T01520039  RH  048%=      5-min Rain = 0
KRLS 140325Z 20004KT 15/06 A2998 RMK A01 T01480056  RH  055%=      5-min Rain = 0
KRLS 140330Z 19006KT 16/04 A2998 RMK A01 T01550037  RH  046%=      5-min Rain = 0
KRLS 140335Z 21003KT 15/04 A2998 RMK A01 T01480043  RH  050%=      5-min Rain = 0
KRLS 140340Z 19006KT 15/04 A2998 RMK A01 T01510043  RH  049%=      5-min Rain = 0
KRLS 140345Z 19005KT 15/04 A2998 RMK A01 T01490039  RH  049%=      5-min Rain = 0
KRLS 140350Z 21006KT 15/04 A2998 RMK A01 T01480041  RH  050%=      5-min Rain = 0
KRLS 140355Z 19007KT 15/04 A2998 RMK A01 T01460036  RH  049%=      5-min Rain = 0
KRLS 140400Z 19008KT 15/03 A2998 RMK A01 T01470034  RH  048%=      5-min Rain = 0
KRLS 140405Z 20008KT 15/04 A2999 RMK A01 T01470036  RH  048%=      5-min Rain = 0
KRLS 140410Z 20007KT 14/04 A2998 RMK A01 T01440038  RH  050%=      5-min Rain = 0
KRLS 140415Z 20006KT 15/04 A2998 RMK A01 T01450039  RH  050%=      5-min Rain = 0
KRLS 140420Z 21006KT 15/04 A2998 RMK A01 T01450038  RH  050%=      5-min Rain = 0
KRLS 140425Z 21006KT 14/03 A2998 RMK A01 T01440034  RH  048%=      5-min Rain = 0
KRLS 140430Z 22006KT 15/03 A2998 RMK A01 T01490031  RH  046%=      5-min Rain = 0
KRLS 140435Z 21006KT 15/03 A2998 RMK A01 T01450030  RH  047%=      5-min Rain = 0
KRLS 140440Z 20007KT 14/04 A2998 RMK A01 T01420037  RH  050%=      5-min Rain = 0
KRLS 140445Z 21008KT 14/04 A2998 RMK A01 T01390041  RH  053%=      5-min Rain = 0
KRLS 140450Z 21008KT 14/04 A2998 RMK A01 T01410038  RH  051%=      5-min Rain = 0
KRLS 140455Z 22009KT 14/04 A2998 RMK A01 T01430037  RH  050%=      5-min Rain = 0

Page generated in 0.0351 seconds.